Time;durP1;ratioP1;P1;durP2;ratioP2;P2;SDS_P1;SDS_P2;PMS_P1;PMS_P2;Temp;Humidity;BMP_temperature;BMP_pressure;BME280_temperature;BME280_humidity;BME280_pressure;Samples;Min_cycle;Max_cycle;Signal;HPM_P1;HPM_P2
2022/04/04 00:02:21;;;;;;;;;6.75;6.00;;;;;4.26;77.99;-18581.22;5037088;28;11473;-70
2022/04/04 00:04:47;;;;;;;;;4.00;4.00;;;;;4.28;78.83;-18581.69;5043451;28;11581;-69
2022/04/04 00:07:13;;;;;;;;;9.00;9.00;;;;;4.29;78.58;-18582.13;5041386;28;11444;-69
2022/04/04 00:09:40;;;;;;;;;12.00;8.00;;;;;4.26;79.03;-18581.22;5032973;28;12272;-68
2022/04/04 00:12:07;;;;;;;;;9.25;4.50;;;;;4.24;79.57;-18580.47;5038536;28;11497;-70
2022/04/04 00:14:34;;;;;;;;;6.75;4.00;;;;;4.25;79.03;-18580.94;5046696;28;11506;-71
2022/04/04 00:17:01;;;;;;;;;4.75;4.50;;;;;4.26;79.56;-18581.09;5041083;28;11488;-70
2022/04/04 00:19:27;;;;;;;;;8.00;8.00;;;;;4.30;79.11;-18582.28;5033209;28;11631;-69
2022/04/04 00:21:54;;;;;;;;;7.75;6.75;;;;;4.25;79.41;-18580.78;5032652;28;11434;-69
2022/04/04 00:24:20;;;;;;;;;7.50;6.75;;;;;4.27;79.41;-18581.53;5038155;28;11533;-70
2022/04/04 00:26:47;;;;;;;;;10.50;8.75;;;;;4.25;80.08;-18580.94;5039666;28;11607;-70
2022/04/04 00:29:14;;;;;;;;;11.50;11.25;;;;;4.22;79.82;-18580.03;5040753;28;11463;-69
2022/04/04 00:31:40;;;;;;;;;9.00;7.00;;;;;4.24;79.98;-18580.47;5032336;28;11612;-70
2022/04/04 00:34:07;;;;;;;;;7.50;7.50;;;;;4.26;80.12;-18581.22;5045804;28;11548;-68
2022/04/04 00:36:33;;;;;;;;;14.00;13.00;;;;;4.19;80.38;-18579.09;5041582;28;11433;-70
2022/04/04 00:38:59;;;;;;;;;9.25;8.25;;;;;4.19;80.42;-18578.97;5047400;28;11652;-70
2022/04/04 00:41:26;;;;;;;;;10.50;9.75;;;;;4.24;81.37;-18580.47;5051499;28;11582;-69
2022/04/04 00:43:53;;;;;;;;;9.00;9.00;;;;;4.27;80.92;-18581.38;5040597;28;11460;-70
2022/04/04 00:46:19;;;;;;;;;17.75;13.75;;;;;4.24;81.05;-18580.47;5041424;28;11494;-70
2022/04/04 00:48:46;;;;;;;;;16.00;13.00;;;;;4.21;81.44;-18579.72;5050105;28;11554;-68
2022/04/04 00:51:13;;;;;;;;;17.50;14.25;;;;;4.23;81.27;-18580.19;5051944;28;11480;-70
2022/04/04 00:53:40;;;;;;;;;12.50;11.50;;;;;4.21;81.26;-18579.56;5052078;28;11480;-70
2022/04/04 00:56:08;;;;;;;;;14.00;11.00;;;;;4.27;81.58;-18581.53;5044813;28;11502;-70
2022/04/04 00:58:38;;;;;;;;;15.50;14.00;;;;;4.25;81.65;-18580.94;5049389;28;11488;-68
2022/04/04 01:01:05;;;;;;;;;15.50;12.75;;;;;4.25;81.79;-18580.94;5051849;28;12282;-69
2022/04/04 01:03:32;;;;;;;;;13.50;13.50;;;;;4.28;81.70;-18581.69;5051701;28;11500;-68
2022/04/04 01:05:59;;;;;;;;;12.75;12.00;;;;;4.26;81.98;-18581.22;5044777;28;11498;-70
2022/04/04 01:08:26;;;;;;;;;18.75;16.25;;;;;4.30;82.23;-18582.28;5048250;28;11511;-68
2022/04/04 01:10:53;;;;;;;;;16.00;12.00;;;;;4.26;82.34;-18581.22;5042795;28;12658;-68
2022/04/04 01:13:19;;;;;;;;;20.50;13.75;;;;;4.26;82.27;-18581.22;5045556;28;11647;-68
2022/04/04 01:15:46;;;;;;;;;15.75;12.75;;;;;4.21;82.17;-18579.72;5050879;28;11526;-68
2022/04/04 01:18:13;;;;;;;;;12.75;9.00;;;;;4.30;82.63;-18582.44;5036556;28;11664;-70
2022/04/04 01:20:40;;;;;;;;;14.00;13.00;;;;;4.33;82.81;-18583.34;5032095;28;11466;-70
2022/04/04 01:23:07;;;;;;;;;22.25;18.25;;;;;4.40;83.21;-18585.31;5031373;28;11623;-69
2022/04/04 01:25:37;;;;;;;;;14.50;12.00;;;;;4.42;82.97;-18585.78;5040214;28;11595;-69
2022/04/04 01:28:05;;;;;;;;;17.50;15.25;;;;;4.43;82.94;-18586.22;5049296;28;11559;-70
2022/04/04 01:30:32;;;;;;;;;18.75;15.25;;;;;4.49;83.40;-18588.03;5051477;28;11676;-71
2022/04/04 01:33:00;;;;;;;;;17.75;13.50;;;;;4.48;83.27;-18587.75;5051208;28;11625;-68
2022/04/04 01:35:27;;;;;;;;;17.00;17.00;;;;;4.49;83.67;-18587.88;5049300;28;11500;-71
2022/04/04 01:37:53;;;;;;;;;20.00;16.50;;;;;4.54;83.79;-18589.41;5043119;28;11490;-70
2022/04/04 01:40:20;;;;;;;;;14.00;14.00;;;;;4.53;83.87;-18589.25;5045117;28;11491;-68
2022/04/04 01:42:50;;;;;;;;;16.00;14.50;;;;;4.60;84.16;-18591.38;5046411;28;12245;-68
2022/04/04 01:45:17;;;;;;;;;22.50;15.00;;;;;4.64;84.20;-18592.44;5046130;28;11689;-69
2022/04/04 01:47:45;;;;;;;;;12.00;11.50;;;;;4.71;84.73;-18594.41;5049820;28;12302;-68
2022/04/04 01:50:12;;;;;;;;;16.25;15.00;;;;;4.72;84.21;-18594.69;5049316;28;11470;-69
2022/04/04 01:52:38;;;;;;;;;13.25;12.00;;;;;4.71;84.32;-18594.56;5040927;28;11609;-70
2022/04/04 01:55:05;;;;;;;;;14.00;12.50;;;;;4.72;84.77;-18594.69;5039097;28;11517;-68
2022/04/04 01:57:33;;;;;;;;;12.50;12.50;;;;;4.76;84.59;-18595.91;5046355;28;11475;-69
2022/04/04 01:59:59;;;;;;;;;10.50;10.50;;;;;4.74;84.84;-18595.47;5050296;28;11536;-69
2022/04/04 02:02:26;;;;;;;;;15.75;13.75;;;;;4.79;85.02;-18596.81;5041362;28;11769;-69
2022/04/04 02:04:53;;;;;;;;;9.50;9.50;;;;;4.81;85.07;-18597.41;5039177;28;11609;-69
2022/04/04 02:07:19;;;;;;;;;10.50;9.75;;;;;4.83;85.19;-18598.19;5039892;28;11448;-70
2022/04/04 02:09:45;;;;;;;;;13.75;11.25;;;;;4.87;85.03;-18599.22;5042048;28;11573;-69
2022/04/04 02:12:12;;;;;;;;;10.75;10.75;;;;;4.88;85.04;-18599.69;5046023;28;11578;-68
2022/04/04 02:14:38;;;;;;;;;13.25;11.00;;;;;4.91;84.78;-18600.59;5051815;28;11475;-68
2022/04/04 02:17:06;;;;;;;;;10.50;9.00;;;;;4.89;85.13;-18599.84;5053979;28;12266;-70
2022/04/04 02:19:32;;;;;;;;;8.25;8.00;;;;;4.94;85.28;-18601.50;5051990;28;12187;-68
2022/04/04 02:21:59;;;;;;;;;8.50;8.25;;;;;5.00;85.22;-18603.16;5052958;28;11466;-69
2022/04/04 02:24:25;;;;;;;;;12.50;8.00;;;;;5.00;85.03;-18603.16;5045559;28;11482;-70
2022/04/04 02:26:52;;;;;;;;;10.00;10.00;;;;;5.02;85.15;-18603.63;5046702;28;11603;-69
2022/04/04 02:29:18;;;;;;;;;18.50;14.00;;;;;5.00;85.32;-18603.03;5051902;28;11589;-69
2022/04/04 02:31:45;;;;;;;;;12.75;11.00;;;;;5.09;85.33;-18605.75;5041972;28;11503;-69
2022/04/04 02:34:11;;;;;;;;;13.00;11.50;;;;;5.12;85.08;-18606.81;5044718;28;11479;-69
2022/04/04 02:36:38;;;;;;;;;14.00;12.50;;;;;5.14;84.99;-18607.25;5052033;28;11446;-68
2022/04/04 02:39:04;;;;;;;;;12.50;10.50;;;;;5.19;85.02;-18608.91;5035251;28;11466;-69
2022/04/04 02:41:31;;;;;;;;;12.25;12.25;;;;;5.22;84.85;-18609.69;5052153;28;11589;-69
2022/04/04 02:43:58;;;;;;;;;25.50;19.00;;;;;5.21;84.61;-18609.53;5033968;28;11472;-69
2022/04/04 02:46:26;;;;;;;;;12.50;10.00;;;;;5.22;85.02;-18609.81;5033850;28;11479;-70
2022/04/04 02:48:53;;;;;;;;;13.00;13.00;;;;;5.23;84.84;-18609.97;5045692;28;11501;-70
2022/04/04 02:51:19;;;;;;;;;18.75;16.00;;;;;5.24;85.08;-18610.28;5043141;28;11560;-69
2022/04/04 02:53:46;;;;;;;;;15.25;13.25;;;;;5.28;84.97;-18611.50;5032464;28;11648;-70
2022/04/04 02:56:31;;;;;;;;;11.75;11.00;;;;;5.25;85.38;-18610.59;5045391;28;11505;-69
2022/04/04 02:59:02;;;;;;;;;15.50;15.00;;;;;5.24;85.38;-18610.44;5050127;28;11534;-69
2022/04/04 03:01:30;;;;;;;;;16.00;13.00;;;;;5.30;85.33;-18611.94;5041504;28;11616;-70
2022/04/04 03:03:57;;;;;;;;;12.50;12.25;;;;;5.31;85.21;-18612.25;5038894;28;11474;-70
2022/04/04 03:06:23;;;;;;;;;16.25;16.25;;;;;5.29;85.36;-18611.63;5045843;28;11551;-70
2022/04/04 03:08:50;;;;;;;;;19.00;13.00;;;;;5.31;85.37;-18612.41;5049985;28;11607;-69
2022/04/04 03:11:17;;;;;;;;;18.00;17.00;;;;;5.28;85.50;-18611.50;5041729;28;11627;-70
2022/04/04 03:13:43;;;;;;;;;14.75;11.50;;;;;5.29;85.54;-18611.78;5033411;28;11514;-69
2022/04/04 03:16:10;;;;;;;;;17.25;15.25;;;;;5.33;85.46;-18612.84;5031295;28;11568;-69
2022/04/04 03:18:37;;;;;;;;;17.00;13.25;;;;;5.32;85.69;-18612.69;5059123;28;11502;-70
2022/04/04 03:21:05;;;;;;;;;14.75;14.00;;;;;5.36;85.03;-18613.75;5036223;28;11575;-70
2022/04/04 03:23:33;;;;;;;;;15.75;13.00;;;;;5.37;85.13;-18614.06;5047451;28;11508;-70
2022/04/04 03:26:00;;;;;;;;;15.00;12.50;;;;;5.36;84.76;-18613.75;5051281;28;11486;-70
2022/04/04 03:28:26;;;;;;;;;12.00;10.00;;;;;5.38;84.77;-18614.50;5050522;28;11474;-69
2022/04/04 03:30:53;;;;;;;;;20.00;17.00;;;;;5.36;84.86;-18613.91;5044238;28;11565;-71
2022/04/04 03:33:20;;;;;;;;;16.25;15.50;;;;;5.39;84.89;-18614.81;5045930;28;11480;-69
2022/04/04 03:35:48;;;;;;;;;15.50;15.50;;;;;5.42;84.68;-18615.56;5051218;28;11514;-69
2022/04/04 03:38:15;;;;;;;;;24.00;20.75;;;;;5.42;84.13;-18615.72;5049558;28;11487;-70
2022/04/04 03:40:43;;;;;;;;;19.00;17.00;;;;;5.44;83.53;-18616.19;5051960;28;11524;-69
2022/04/04 03:43:11;;;;;;;;;23.50;21.00;;;;;5.46;83.03;-18616.94;5040245;28;11611;-69
2022/04/04 03:45:38;;;;;;;;;16.50;10.25;;;;;5.47;82.75;-18617.25;5044141;28;11596;-70
2022/04/04 03:48:05;;;;;;;;;16.25;14.00;;;;;5.49;82.26;-18617.69;5047546;28;11463;-69
2022/04/04 03:50:31;;;;;;;;;18.25;14.50;;;;;5.51;81.75;-18618.28;5052391;28;11536;-70
2022/04/04 03:52:58;;;;;;;;;17.00;16.00;;;;;5.53;81.89;-18619.06;5052098;28;11522;-69
2022/04/04 03:55:28;;;;;;;;;12.50;12.50;;;;;5.56;81.59;-18619.97;5043493;28;11497;-69
2022/04/04 03:57:55;;;;;;;;;16.50;16.00;;;;;5.58;81.13;-18620.41;5034197;28;11514;-69
2022/04/04 04:00:23;;;;;;;;;15.75;13.00;;;;;5.61;80.97;-18621.31;5042237;28;12214;-70
2022/04/04 04:02:51;;;;;;;;;15.75;15.75;;;;;5.62;80.97;-18621.63;5032301;28;11603;-69
2022/04/04 04:05:18;;;;;;;;;13.50;12.25;;;;;5.63;80.77;-18621.94;5051665;28;11491;-68
2022/04/04 04:07:44;;;;;;;;;22.00;18.00;;;;;5.64;80.39;-18622.22;5061953;28;11605;-69
2022/04/04 04:10:11;;;;;;;;;20.00;18.75;;;;;5.65;80.39;-18622.38;5053335;28;11499;-69
2022/04/04 04:12:39;;;;;;;;;20.25;15.00;;;;;5.65;79.94;-18622.53;5051260;28;11578;-68
2022/04/04 04:15:12;;;;;;;;;16.00;15.25;;;;;5.65;79.96;-18622.53;5046751;28;11542;-69
2022/04/04 04:17:38;;;;;;;;;19.00;16.00;;;;;5.67;79.97;-18623.13;5034218;28;11614;-69
2022/04/04 04:20:22;;;;;;;;;19.50;19.25;;;;;5.69;79.75;-18623.59;5038957;28;11485;-70
2022/04/04 04:22:59;;;;;;;;;14.75;14.50;;;;;5.69;79.60;-18623.75;5050601;28;11474;-69
2022/04/04 04:25:29;;;;;;;;;13.00;12.00;;;;;5.69;79.47;-18623.75;5044542;28;11507;-69
2022/04/04 04:27:59;;;;;;;;;22.00;19.25;;;;;5.67;79.31;-18622.97;5044971;28;11486;-71
2022/04/04 04:30:26;;;;;;;;;16.25;12.75;;;;;5.69;78.86;-18623.75;5052324;28;12282;-69
2022/04/04 04:32:53;;;;;;;;;26.00;15.00;;;;;5.71;78.60;-18624.19;5052152;28;11487;-70
2022/04/04 04:35:21;;;;;;;;;17.75;16.00;;;;;5.73;78.41;-18624.81;5044305;28;11639;-69
2022/04/04 04:37:50;;;;;;;;;17.25;13.50;;;;;5.75;78.30;-18625.41;5052673;28;11576;-70
2022/04/04 04:40:17;;;;;;;;;17.00;14.75;;;;;5.73;78.68;-18624.94;5075056;22;11525;-67
2022/04/04 04:42:45;;;;;;;;;15.75;15.75;;;;;5.73;79.03;-18624.94;5033353;28;11492;-67
2022/04/04 04:45:12;;;;;;;;;12.25;9.25;;;;;5.71;79.09;-18624.34;5030935;28;11595;-68
2022/04/04 04:47:40;;;;;;;;;15.00;13.00;;;;;5.74;78.93;-18625.25;5032283;28;11523;-67
2022/04/04 04:50:11;;;;;;;;;14.25;11.25;;;;;5.74;78.87;-18625.25;5045667;28;11612;-68
2022/04/04 04:52:38;;;;;;;;;16.00;14.00;;;;;5.73;78.96;-18624.94;5030650;28;11510;-68
2022/04/04 04:55:08;;;;;;;;;19.50;12.00;;;;;5.74;78.85;-18625.25;5030263;28;11533;-68
2022/04/04 04:57:34;;;;;;;;;16.25;13.00;;;;;5.76;79.14;-18625.72;5013403;28;11542;-68
2022/04/04 05:00:05;;;;;;;;;12.50;12.50;;;;;5.75;78.91;-18625.41;5030662;28;11490;-67
2022/04/04 05:02:33;;;;;;;;;16.25;14.75;;;;;5.72;79.19;-18624.66;5030659;28;11472;-68
2022/04/04 05:05:00;;;;;;;;;18.00;12.75;;;;;5.75;79.15;-18625.56;5031798;28;12313;-69
2022/04/04 05:07:27;;;;;;;;;17.25;15.50;;;;;5.73;79.03;-18624.81;5021355;28;11489;-68
2022/04/04 05:09:53;;;;;;;;;18.25;16.00;;;;;5.74;79.35;-18625.09;5029042;28;11503;-69
2022/04/04 05:12:20;;;;;;;;;15.00;10.00;;;;;5.73;78.77;-18624.94;5025455;28;11520;-69
2022/04/04 05:14:48;;;;;;;;;15.00;15.00;;;;;5.75;78.71;-18625.41;5014063;28;11512;-68
2022/04/04 05:17:15;;;;;;;;;17.75;12.75;;;;;5.75;78.52;-18625.56;5031557;28;11512;-68
2022/04/04 05:19:42;;;;;;;;;12.50;12.25;;;;;5.77;78.66;-18626.16;5057836;28;11546;-68
2022/04/04 05:22:08;;;;;;;;;24.00;19.50;;;;;5.77;78.82;-18626.16;5030948;28;11641;-69
2022/04/04 05:24:36;;;;;;;;;15.00;12.25;;;;;5.76;79.30;-18625.84;5029819;28;11630;-68
2022/04/04 05:27:02;;;;;;;;;15.75;15.25;;;;;5.78;80.02;-18626.47;5031114;28;11514;-69
2022/04/04 05:29:29;;;;;;;;;14.50;12.50;;;;;5.81;80.38;-18627.38;5029065;28;11509;-68
2022/04/04 05:31:56;;;;;;;;;14.50;14.25;;;;;5.76;81.11;-18625.84;5031103;28;11693;-68
2022/04/04 05:34:26;;;;;;;;;22.00;18.50;;;;;5.78;81.51;-18626.47;5046250;28;11502;-68
2022/04/04 05:36:58;;;;;;;;;19.00;18.50;;;;;5.78;81.98;-18626.47;5031362;28;11618;-68
2022/04/04 05:39:24;;;;;;;;;15.75;14.50;;;;;5.74;82.44;-18625.25;5037055;28;11454;-68
2022/04/04 05:41:52;;;;;;;;;17.75;15.75;;;;;5.75;81.57;-18625.41;5030748;28;11548;-68
2022/04/04 05:44:19;;;;;;;;;20.25;17.25;;;;;5.77;81.66;-18626.16;5062354;28;11480;-69
2022/04/04 05:46:46;;;;;;;;;13.00;12.50;;;;;5.77;81.75;-18626.16;5030651;28;11523;-69
2022/04/04 05:49:13;;;;;;;;;21.75;18.75;;;;;5.77;82.49;-18626.00;5026138;28;11530;-69
2022/04/04 05:51:40;;;;;;;;;17.75;16.75;;;;;5.74;83.11;-18625.09;5029302;28;11496;-68
2022/04/04 05:54:26;;;;;;;;;14.75;14.00;;;;;5.76;83.17;-18625.84;5046365;28;11636;-67
2022/04/04 05:56:53;;;;;;;;;14.50;14.50;;;;;5.75;83.79;-18625.41;5027257;28;12296;-69
2022/04/04 05:59:22;;;;;;;;;10.00;10.00;;;;;5.72;84.93;-18624.50;5039331;28;11495;-69
2022/04/04 06:01:49;;;;;;;;;13.00;12.00;;;;;5.67;85.83;-18622.97;5026282;28;12223;-69
2022/04/04 06:04:15;;;;;;;;;9.50;9.50;;;;;5.67;86.65;-18622.97;5026312;28;11476;-70
2022/04/04 06:06:42;;;;;;;;;19.50;17.75;;;;;5.64;87.10;-18622.06;5022735;28;11493;-69
2022/04/04 06:09:09;;;;;;;;;15.25;12.75;;;;;5.63;87.98;-18621.94;5029035;28;11549;-69
2022/04/04 06:11:35;;;;;;;;;20.75;18.50;;;;;5.59;88.56;-18620.72;5027895;28;11532;-69
2022/04/04 06:14:02;;;;;;;;;16.25;16.25;;;;;5.60;89.22;-18620.88;5044815;28;11660;-70
2022/04/04 06:16:28;;;;;;;;;21.00;17.50;;;;;5.63;90.01;-18621.94;5027387;28;11514;-68
2022/04/04 06:18:55;;;;;;;;;20.00;16.50;;;;;5.74;91.21;-18625.25;5020461;28;11537;-68
2022/04/04 06:21:21;;;;;;;;;16.00;15.50;;;;;5.63;90.23;-18621.78;5024823;28;11513;-70
2022/04/04 06:23:48;;;;;;;;;12.25;12.25;;;;;5.64;88.95;-18622.06;5026306;28;11597;-71
2022/04/04 06:26:14;;;;;;;;;13.25;11.50;;;;;5.62;87.08;-18621.63;5020897;28;11662;-70
2022/04/04 06:28:41;;;;;;;;;9.50;9.50;;;;;5.66;86.20;-18622.84;5021524;28;11588;-69
2022/04/04 06:31:07;;;;;;;;;6.25;6.25;;;;;5.70;85.03;-18624.03;5043476;28;11562;-70
2022/04/04 06:33:34;;;;;;;;;10.00;7.00;;;;;5.68;84.28;-18623.44;5026669;28;11497;-70
2022/04/04 06:36:00;;;;;;;;;6.00;6.00;;;;;5.72;84.71;-18624.50;5021294;28;12364;-70
2022/04/04 06:38:27;;;;;;;;;4.00;4.00;;;;;5.68;84.60;-18623.44;5027638;28;11475;-71
2022/04/04 06:40:53;;;;;;;;;7.00;6.00;;;;;5.72;84.55;-18624.66;5028872;28;11471;-70
2022/04/04 06:43:20;;;;;;;;;6.25;4.00;;;;;5.70;84.58;-18624.03;5028306;28;11443;-69
2022/04/04 06:45:47;;;;;;;;;8.00;7.50;;;;;5.71;84.59;-18624.34;5028281;28;11435;-69
2022/04/04 06:48:14;;;;;;;;;6.00;5.00;;;;;5.75;85.22;-18625.56;5024294;28;11457;-70
2022/04/04 06:50:40;;;;;;;;;7.00;7.00;;;;;5.75;84.20;-18625.56;5043731;28;11533;-69
2022/04/04 06:53:07;;;;;;;;;3.75;3.75;;;;;5.83;84.26;-18627.97;5017900;28;11460;-70
2022/04/04 06:55:44;;;;;;;;;5.50;5.50;;;;;5.79;85.22;-18626.75;5028003;28;11439;-69
2022/04/04 06:58:11;;;;;;;;;9.25;5.50;;;;;5.76;85.53;-18625.84;5044287;28;11533;-69
2022/04/04 07:00:38;;;;;;;;;3.50;3.50;;;;;5.76;85.04;-18625.72;5028339;28;11486;-70
2022/04/04 07:03:05;;;;;;;;;6.00;6.00;;;;;5.77;85.44;-18626.00;5028426;28;11443;-70
2022/04/04 07:05:32;;;;;;;;;4.75;4.00;;;;;5.80;85.71;-18626.91;5029484;28;11456;-70
2022/04/04 07:07:58;;;;;;;;;8.50;6.25;;;;;5.83;85.63;-18627.81;5029367;28;11450;-69
2022/04/04 07:10:25;;;;;;;;;4.00;3.00;;;;;5.86;86.31;-18628.72;5027300;28;12284;-69
2022/04/04 07:12:51;;;;;;;;;6.50;6.50;;;;;5.80;86.85;-18627.06;5044434;28;11436;-73
2022/04/04 07:15:18;;;;;;;;;5.75;5.75;;;;;5.79;88.24;-18626.75;5013101;28;11470;-69
2022/04/04 07:17:45;;;;;;;;;6.75;6.00;;;;;5.82;88.89;-18627.66;5031948;28;11460;-69
2022/04/04 07:20:13;;;;;;;;;6.75;6.75;;;;;5.79;89.16;-18626.75;5033436;28;11439;-69
2022/04/04 07:22:41;;;;;;;;;9.25;7.00;;;;;5.76;89.07;-18625.84;5033705;28;11494;-70
2022/04/04 07:25:09;;;;;;;;;7.50;7.50;;;;;5.77;89.52;-18626.16;5053467;28;11553;-71
2022/04/04 07:27:40;;;;;;;;;7.00;6.25;;;;;5.76;89.63;-18625.72;5027325;28;11493;-71
2022/04/04 07:30:09;;;;;;;;;4.50;3.00;;;;;5.74;89.40;-18625.09;5033027;28;11439;-69
2022/04/04 07:32:37;;;;;;;;;4.50;3.50;;;;;5.71;90.05;-18624.34;5030199;28;11536;-69
2022/04/04 07:35:04;;;;;;;;;5.00;5.00;;;;;5.71;90.68;-18624.34;5031817;28;11505;-69
2022/04/04 07:37:31;;;;;;;;;11.50;9.50;;;;;5.71;90.91;-18624.19;5031278;28;12133;-69
2022/04/04 07:39:58;;;;;;;;;8.50;8.25;;;;;5.71;91.28;-18624.34;5032832;28;11559;-69
2022/04/04 07:42:25;;;;;;;;;8.75;4.50;;;;;5.69;91.57;-18623.59;5032485;28;11542;-71
2022/04/04 07:44:51;;;;;;;;;4.00;4.00;;;;;5.67;91.82;-18622.97;5032895;28;11509;-69
2022/04/04 07:47:18;;;;;;;;;6.00;6.00;;;;;5.69;92.04;-18623.75;5032690;28;11428;-69
2022/04/04 07:49:44;;;;;;;;;13.00;8.25;;;;;5.70;91.41;-18623.88;5031333;28;11449;-71
2022/04/04 07:52:11;;;;;;;;;6.75;6.00;;;;;5.69;91.33;-18623.75;5032074;28;11466;-70
2022/04/04 07:54:37;;;;;;;;;7.75;7.25;;;;;5.66;91.78;-18622.69;5031326;28;11474;-69
2022/04/04 07:57:04;;;;;;;;;8.75;5.75;;;;;5.62;92.12;-18621.63;5031166;28;11544;-69
2022/04/04 07:59:31;;;;;;;;;7.00;7.00;;;;;5.66;93.40;-18622.84;5047943;28;11493;-71
2022/04/04 08:01:57;;;;;;;;;11.00;9.75;;;;;5.62;93.01;-18621.63;5047411;28;11515;-69
2022/04/04 08:04:24;;;;;;;;;8.00;6.00;;;;;5.63;94.03;-18621.78;5032275;28;12171;-69
2022/04/04 08:06:50;;;;;;;;;10.00;8.50;;;;;5.66;94.77;-18622.84;5032297;28;11563;-70
2022/04/04 08:09:17;;;;;;;;;8.00;6.00;;;;;5.62;95.61;-18621.63;5032317;28;11484;-69
2022/04/04 08:11:43;;;;;;;;;8.50;8.00;;;;;5.56;95.91;-18619.97;5047352;28;11465;-71
2022/04/04 08:14:10;;;;;;;;;7.50;7.50;;;;;5.52;96.67;-18618.75;5047557;28;11444;-69
2022/04/04 08:16:37;;;;;;;;;10.00;6.75;;;;;5.53;96.76;-18618.91;5030595;28;11555;-70
2022/04/04 08:19:03;;;;;;;;;6.00;6.00;;;;;5.51;97.06;-18618.28;5031944;28;11469;-70
2022/04/04 08:21:30;;;;;;;;;4.50;4.00;;;;;5.50;97.45;-18618.16;5030542;28;11662;-70
2022/04/04 08:23:58;;;;;;;;;7.00;7.00;;;;;5.52;97.27;-18618.59;5032137;28;11570;-70
2022/04/04 08:26:24;;;;;;;;;6.00;6.00;;;;;5.52;97.48;-18618.59;5031330;28;12111;-70
2022/04/04 08:28:51;;;;;;;;;7.50;7.00;;;;;5.51;97.19;-18618.44;5030894;28;11419;-69
2022/04/04 08:31:17;;;;;;;;;6.00;4.25;;;;;5.55;97.70;-18619.66;5031756;28;11424;-69
2022/04/04 08:33:44;;;;;;;;;5.50;5.00;;;;;5.52;97.57;-18618.75;5031729;28;11568;-70
2022/04/04 08:36:10;;;;;;;;;8.50;6.00;;;;;5.54;97.90;-18619.19;5046731;28;11458;-70
2022/04/04 08:38:39;;;;;;;;;11.00;8.25;;;;;5.51;97.17;-18618.44;5031418;28;11485;-69
2022/04/04 08:41:06;;;;;;;;;5.00;5.00;;;;;5.55;97.15;-18619.50;5038860;28;11491;-71
2022/04/04 08:43:36;;;;;;;;;3.50;3.50;;;;;5.54;97.64;-18619.19;5035370;28;11455;-70
2022/04/04 08:46:05;;;;;;;;;6.00;6.00;;;;;5.53;97.44;-18618.91;5031814;28;11519;-70
2022/04/04 08:48:32;;;;;;;;;3.50;3.50;;;;;5.55;97.16;-18619.50;5031498;28;12126;-69
2022/04/04 08:50:59;;;;;;;;;5.00;5.00;;;;;5.60;97.64;-18620.88;5031355;28;11577;-70
2022/04/04 08:53:25;;;;;;;;;6.00;6.00;;;;;5.53;97.47;-18618.91;5031206;28;11528;-69
2022/04/04 08:55:52;;;;;;;;;5.00;5.00;;;;;5.58;97.83;-18620.41;5031360;28;11602;-68
2022/04/04 08:58:18;;;;;;;;;5.00;5.00;;;;;5.62;98.09;-18621.63;5045918;28;11468;-70
2022/04/04 09:00:45;;;;;;;;;7.75;5.00;;;;;5.62;98.38;-18621.47;5031686;28;12204;-69
2022/04/04 09:03:19;;;;;;;;;6.00;6.00;;;;;5.65;97.61;-18622.53;5029954;28;11586;-70
2022/04/04 09:05:50;;;;;;;;;5.75;4.50;;;;;5.71;97.91;-18624.19;5030913;28;11549;-70
2022/04/04 09:08:25;;;;;;;;;6.00;3.00;;;;;5.69;98.04;-18623.59;5031454;28;11429;-69
2022/04/04 09:10:56;;;;;;;;;4.50;4.25;;;;;5.70;98.68;-18623.88;5030858;28;11441;-69
2022/04/04 09:13:25;;;;;;;;;5.00;5.00;;;;;5.73;99.50;-18624.81;5031340;28;11496;-70
2022/04/04 09:16:03;;;;;;;;;5.50;5.00;;;;;5.79;100.00;-18626.63;5031130;28;11438;-69
2022/04/04 09:18:35;;;;;;;;;4.00;3.25;;;;;5.82;100.00;-18627.66;5031634;28;11545;-69
2022/04/04 09:21:04;;;;;;;;;9.75;7.75;;;;;5.84;100.00;-18628.13;5029597;28;11467;-68
2022/04/04 09:23:35;;;;;;;;;8.25;5.75;;;;;5.85;100.00;-18628.56;5030013;28;11549;-69
2022/04/04 09:26:02;;;;;;;;;8.50;8.50;;;;;5.87;100.00;-18629.03;5031513;28;11464;-69
2022/04/04 09:28:29;;;;;;;;;8.75;5.25;;;;;5.93;100.00;-18630.84;5029588;28;11491;-68
2022/04/04 09:31:07;;;;;;;;;7.50;4.50;;;;;5.92;100.00;-18630.53;5030602;28;11476;-68
2022/04/04 09:33:38;;;;;;;;;3.00;3.00;;;;;5.93;100.00;-18630.69;5030265;28;12267;-69
2022/04/04 09:36:06;;;;;;;;;7.00;5.50;;;;;5.92;100.00;-18630.53;5031080;28;11406;-68
2022/04/04 09:38:34;;;;;;;;;4.00;4.00;;;;;5.93;100.00;-18630.69;5045364;28;11595;-67
2022/04/04 09:41:05;;;;;;;;;3.25;3.25;;;;;6.02;100.00;-18633.44;5030692;28;11205;-68
2022/04/04 09:43:52;;;;;;;;;5.00;5.00;;;;;6.04;100.00;-18634.03;5030587;28;11448;-70
2022/04/04 09:46:19;;;;;;;;;6.00;3.50;;;;;6.03;100.00;-18633.72;5030499;28;11448;-70
2022/04/04 09:49:06;;;;;;;;;2.75;2.75;;;;;6.09;100.00;-18635.69;5028992;28;11448;-70
2022/04/04 09:51:41;;;;;;;;;1.00;1.00;;;;;6.11;100.00;-18636.16;5031048;28;11196;-69
2022/04/04 09:54:11;;;;;;;;;4.25;2.00;;;;;6.16;100.00;-18637.81;5030562;28;11465;-69
2022/04/04 09:56:37;;;;;;;;;2.25;2.25;;;;;6.12;100.00;-18636.59;5030617;28;11606;-68
2022/04/04 09:59:05;;;;;;;;;2.50;2.50;;;;;6.21;100.00;-18639.16;5030033;28;11468;-68
2022/04/04 10:01:33;;;;;;;;;5.50;4.00;;;;;6.22;100.00;-18639.47;5031582;28;11496;-68
2022/04/04 10:04:01;;;;;;;;;3.00;3.00;;;;;6.25;100.00;-18640.22;5030680;28;11223;-68
2022/04/04 10:06:30;;;;;;;;;3.50;2.00;;;;;6.31;100.00;-18642.19;5030636;28;11044;-68
2022/04/04 10:08:59;;;;;;;;;3.00;1.00;;;;;6.32;100.00;-18642.50;5029989;28;11567;-68
2022/04/04 10:11:26;;;;;;;;;3.00;1.25;;;;;6.33;100.00;-18642.66;5030065;28;10988;-69
2022/04/04 10:13:54;;;;;;;;;2.00;2.00;;;;;6.28;100.00;-18641.13;5029977;28;11031;-69
2022/04/04 10:16:24;;;;;;;;;2.75;1.00;;;;;6.37;100.00;-18643.84;5028900;28;11038;-68
2022/04/04 10:18:54;;;;;;;;;1.00;1.00;;;;;6.37;100.00;-18644.00;5029346;28;10941;-68
2022/04/04 10:21:21;;;;;;;;;3.00;2.00;;;;;6.38;100.00;-18644.16;5028358;28;11082;-69
2022/04/04 10:23:52;;;;;;;;;2.25;2.25;;;;;6.44;100.00;-18645.97;5028637;28;11106;-69
2022/04/04 10:26:21;;;;;;;;;0.25;0.25;;;;;6.48;100.00;-18647.19;5029189;28;11185;-70
2022/04/04 10:28:48;;;;;;;;;0.75;0.25;;;;;6.53;100.00;-18648.53;5029788;28;10886;-69
2022/04/04 10:31:20;;;;;;;;;2.25;2.00;;;;;6.54;100.00;-18648.84;5029818;28;10953;-69
2022/04/04 10:33:50;;;;;;;;;2.75;2.00;;;;;6.55;100.00;-18649.16;5027870;28;11152;-71
2022/04/04 10:36:24;;;;;;;;;2.25;0.75;;;;;6.56;100.00;-18649.59;5029760;28;11924;-69
2022/04/04 10:38:56;;;;;;;;;1.00;1.00;;;;;6.60;100.00;-18650.66;5053708;22;11022;-70
2022/04/04 10:41:26;;;;;;;;;2.00;1.00;;;;;6.62;100.00;-18651.25;5049338;28;11037;-69
2022/04/04 10:43:55;;;;;;;;;1.50;1.00;;;;;6.62;100.00;-18651.41;5046133;28;11106;-70
2022/04/04 10:46:23;;;;;;;;;1.00;1.00;;;;;6.65;100.00;-18652.16;5050304;28;11805;-69
2022/04/04 10:48:53;;;;;;;;;1.00;1.00;;;;;6.68;100.00;-18653.22;5049870;28;10864;-70
2022/04/04 10:51:26;;;;;;;;;1.25;1.00;;;;;6.68;100.00;-18653.06;5047104;28;10950;-70
2022/04/04 10:54:01;;;;;;;;;1.25;1.25;;;;;6.71;100.00;-18654.13;5039615;28;10979;-70
2022/04/04 10:56:31;;;;;;;;;0.50;0.50;;;;;6.71;100.00;-18654.13;5030072;28;11104;-69
2022/04/04 10:59:15;;;;;;;;;1.25;1.00;;;;;6.70;100.00;-18653.84;5030446;28;11088;-70
2022/04/04 11:01:45;;;;;;;;;2.00;2.00;;;;;6.76;100.00;-18655.66;5030050;28;10968;-69
2022/04/04 11:04:23;;;;;;;;;0.00;0.00;;;;;6.79;100.00;-18656.56;5049298;28;11623;-71
2022/04/04 11:09:51;;;;;;;;;0.00;0.00;;;;;6.79;100.00;-18656.41;5030117;28;10985;-70
2022/04/04 11:12:20;;;;;;;;;1.00;1.00;;;;;6.78;100.00;-18656.25;5030005;28;10900;-70
2022/04/04 11:14:57;;;;;;;;;0.50;0.50;;;;;6.84;100.00;-18657.75;5030205;28;11745;-70
2022/04/04 11:17:30;;;;;;;;;1.00;1.00;;;;;6.84;100.00;-18657.75;5034161;28;11166;-70
2022/04/04 11:20:04;;;;;;;;;0.00;0.00;;;;;6.87;100.00;-18658.81;5032259;28;11553;-70
2022/04/04 11:22:33;;;;;;;;;0.00;0.00;;;;;6.90;100.00;-18659.56;5044288;28;10875;-71
2022/04/04 11:25:05;;;;;;;;;1.00;1.00;;;;;6.93;100.00;-18660.63;5038387;28;10736;-71
2022/04/04 11:27:34;;;;;;;;;1.00;1.00;;;;;6.91;100.00;-18660.03;5044319;28;11460;-70
2022/04/04 11:30:10;;;;;;;;;2.00;0.00;;;;;6.94;100.00;-18660.78;5029834;28;10984;-69
2022/04/04 11:32:43;;;;;;;;;0.00;0.00;;;;;6.97;100.00;-18661.84;5035741;28;10791;-70